createdAt,value
2023-04-17T00:01:05.369Z,9.57
2023-04-17T00:03:32.164Z,9.54
2023-04-17T00:05:58.886Z,9.54
2023-04-17T00:08:25.341Z,9.51
2023-04-17T00:11:00.677Z,9.42
2023-04-17T00:13:33.309Z,9.56
2023-04-17T00:15:59.883Z,9.59
2023-04-17T00:18:26.432Z,9.58
2023-04-17T00:20:53.657Z,9.57
2023-04-17T00:23:20.496Z,9.55
2023-04-17T00:25:47.062Z,9.56
2023-04-17T00:28:13.493Z,9.56
2023-04-17T00:30:39.971Z,9.55
2023-04-17T00:33:06.446Z,9.55
2023-04-17T00:35:32.938Z,9.53
2023-04-17T00:37:59.466Z,9.56
2023-04-17T00:40:26.050Z,9.57
2023-04-17T00:42:56.075Z,9.53
2023-04-17T00:45:22.558Z,9.55
2023-04-17T00:47:49.719Z,9.50
2023-04-17T00:50:16.396Z,9.53
2023-04-17T00:52:44.141Z,9.53
2023-04-17T00:55:10.963Z,9.54
2023-04-17T00:57:37.428Z,9.54
2023-04-17T01:00:04.532Z,9.55
2023-04-17T01:02:31.249Z,9.58
2023-04-17T01:04:57.867Z,9.57
2023-04-17T01:07:24.360Z,9.57
2023-04-17T01:09:51.029Z,9.56
2023-04-17T01:12:21.812Z,9.58
2023-04-17T01:14:55.960Z,9.57
2023-04-17T01:17:23.453Z,9.56
2023-04-17T01:19:50.634Z,9.52
2023-04-17T01:22:17.298Z,9.56
2023-04-17T01:24:44.337Z,9.50
2023-04-17T01:27:13.696Z,9.51
2023-04-17T01:29:41.294Z,9.51
2023-04-17T01:32:08.089Z,9.50
2023-04-17T01:34:37.316Z,9.52
2023-04-17T01:37:04.285Z,9.51
2023-04-17T01:39:30.742Z,9.46
2023-04-17T01:41:57.207Z,9.44
2023-04-17T01:44:23.779Z,9.47
2023-04-17T01:46:51.174Z,9.47
2023-04-17T01:49:17.670Z,9.42
2023-04-17T01:51:44.198Z,9.38
2023-04-17T01:54:10.820Z,9.40
2023-04-17T01:56:37.328Z,9.41
2023-04-17T01:59:03.834Z,9.37
2023-04-17T02:01:31.095Z,9.32
2023-04-17T02:03:57.855Z,9.37
2023-04-17T02:06:24.894Z,9.37
2023-04-17T02:08:51.402Z,9.34
2023-04-17T02:11:18.392Z,9.37
2023-04-17T02:13:44.867Z,9.38
2023-04-17T02:16:12.528Z,9.36
2023-04-17T02:18:40.730Z,9.36
2023-04-17T02:21:10.355Z,9.37
2023-04-17T02:23:36.834Z,9.32
2023-04-17T02:26:03.500Z,9.30
2023-04-17T02:28:30.073Z,9.26
2023-04-17T02:30:56.696Z,9.23
2023-04-17T02:33:26.129Z,9.23
2023-04-17T02:35:52.643Z,9.21
2023-04-17T02:38:19.164Z,9.18
2023-04-17T02:40:45.703Z,9.16
2023-04-17T02:43:14.047Z,9.13
2023-04-17T02:45:40.511Z,9.07
2023-04-17T02:48:07.112Z,9.06
2023-04-17T02:50:33.960Z,9.01
2023-04-17T02:53:00.398Z,9.02
2023-04-17T02:55:27.140Z,9.03
2023-04-17T02:57:53.634Z,8.98
2023-04-17T03:00:20.750Z,8.93
2023-04-17T03:02:47.818Z,8.94
2023-04-17T03:05:16.489Z,8.94
2023-04-17T03:07:43.022Z,8.91
2023-04-17T03:10:09.701Z,8.88
2023-04-17T03:12:36.326Z,8.86
2023-04-17T03:15:03.013Z,8.87
2023-04-17T03:17:29.526Z,8.83
2023-04-17T03:19:56.033Z,8.76
2023-04-17T03:22:22.475Z,8.73
2023-04-17T03:24:48.976Z,8.70
2023-04-17T03:27:15.630Z,8.75
2023-04-17T03:29:44.748Z,8.75
2023-04-17T03:32:11.217Z,8.74
2023-04-17T03:34:38.229Z,8.77
2023-04-17T03:37:04.659Z,8.74
2023-04-17T03:39:31.077Z,8.75
2023-04-17T03:41:57.571Z,8.75
2023-04-17T03:44:24.029Z,8.76
2023-04-17T03:46:50.561Z,8.76
2023-04-17T03:49:17.070Z,8.75
2023-04-17T03:51:43.777Z,8.73
2023-04-17T03:54:10.309Z,8.68
2023-04-17T03:56:36.827Z,8.75
2023-04-17T03:59:04.482Z,8.74
2023-04-17T04:01:32.721Z,8.77
2023-04-17T04:04:00.024Z,8.77
2023-04-17T04:06:29.790Z,8.76
2023-04-17T04:08:56.999Z,8.75
2023-04-17T04:11:23.523Z,8.76
2023-04-17T04:13:50.073Z,8.71
2023-04-17T04:16:16.666Z,8.73
2023-04-17T04:18:43.345Z,8.69
2023-04-17T04:21:12.057Z,8.71
2023-04-17T04:23:41.197Z,8.69
2023-04-17T04:26:07.920Z,8.67
2023-04-17T04:28:34.554Z,8.63
2023-04-17T04:31:02.531Z,8.63
2023-04-17T04:33:29.532Z,8.61
2023-04-17T04:35:56.158Z,8.61
2023-04-17T04:38:29.920Z,8.60
2023-04-17T04:41:06.088Z,8.59
2023-04-17T04:43:33.603Z,8.57
2023-04-17T04:46:00.105Z,8.58
2023-04-17T04:48:26.639Z,8.51
2023-04-17T04:50:53.111Z,8.52
2023-04-17T04:53:19.538Z,8.49
2023-04-17T04:55:46.048Z,8.50
2023-04-17T04:58:12.690Z,8.49
2023-04-17T05:00:39.499Z,8.49
2023-04-17T05:03:06.682Z,8.48
2023-04-17T05:05:33.272Z,8.45
2023-04-17T05:07:59.739Z,8.45
2023-04-17T05:10:26.374Z,8.43
2023-04-17T05:12:52.812Z,8.46
2023-04-17T05:15:19.313Z,8.47
2023-04-17T05:17:45.843Z,8.50
2023-04-17T05:20:12.683Z,8.49
2023-04-17T05:22:39.178Z,8.51
2023-04-17T05:25:05.853Z,8.51
2023-04-17T05:27:32.410Z,8.45
2023-04-17T05:29:58.846Z,8.52
2023-04-17T05:32:25.415Z,8.53
2023-04-17T05:34:52.312Z,8.52
2023-04-17T05:37:19.010Z,8.54
2023-04-17T05:39:45.445Z,8.55
2023-04-17T05:42:11.841Z,8.57
2023-04-17T05:44:39.382Z,8.58
2023-04-17T05:47:06.141Z,8.57
2023-04-17T05:49:32.592Z,8.55
2023-04-17T05:51:59.146Z,8.52
2023-04-17T05:54:27.914Z,8.54
2023-04-17T05:56:54.456Z,8.53
2023-04-17T05:59:21.078Z,8.55
2023-04-17T06:01:47.512Z,8.58
2023-04-17T06:04:14.728Z,8.61
2023-04-17T06:06:41.521Z,8.65
2023-04-17T06:09:09.511Z,8.69
2023-04-17T06:11:36.015Z,8.72
2023-04-17T06:14:02.571Z,8.71
2023-04-17T06:16:29.063Z,8.71
2023-04-17T06:18:56.054Z,8.76
2023-04-17T06:21:22.657Z,8.76
2023-04-17T06:23:49.147Z,8.76
2023-04-17T06:26:16.110Z,8.80
2023-04-17T06:28:42.596Z,8.82
2023-04-17T06:31:09.120Z,8.79
2023-04-17T06:33:35.612Z,8.78
2023-04-17T06:36:03.319Z,8.76
2023-04-17T06:38:29.767Z,8.79
2023-04-17T06:40:56.331Z,8.82
2023-04-17T06:43:22.856Z,8.83
2023-04-17T06:45:49.344Z,8.83
2023-04-17T06:48:16.001Z,8.77
2023-04-17T06:50:42.734Z,8.78
2023-04-17T06:53:09.258Z,8.84
2023-04-17T06:55:35.803Z,8.83
2023-04-17T06:58:02.318Z,8.83
2023-04-17T07:00:28.778Z,8.89
2023-04-17T07:02:55.347Z,8.93
2023-04-17T07:05:21.938Z,8.93
2023-04-17T07:07:48.410Z,8.97
2023-04-17T07:10:15.933Z,9.04
2023-04-17T07:12:42.720Z,9.08
2023-04-17T07:15:09.667Z,9.13
2023-04-17T07:17:36.293Z,9.09
2023-04-17T07:20:05.337Z,9.18
2023-04-17T07:22:31.857Z,9.24
2023-04-17T07:24:58.336Z,9.29
2023-04-17T07:27:24.822Z,9.28
2023-04-17T07:29:54.746Z,9.33
2023-04-17T07:32:22.088Z,9.31
2023-04-17T07:34:48.657Z,9.36
2023-04-17T07:37:15.788Z,9.37
2023-04-17T07:39:42.503Z,9.35
2023-04-17T07:42:09.107Z,9.38
2023-04-17T07:44:35.666Z,9.38
2023-04-17T07:47:02.262Z,9.42
2023-04-17T07:49:28.811Z,9.49
2023-04-17T07:51:55.567Z,9.55
2023-04-17T07:54:22.084Z,9.62
2023-04-17T07:56:49.431Z,9.79
2023-04-17T07:59:19.060Z,9.88
2023-04-17T08:01:45.545Z,9.95
2023-04-17T08:04:12.457Z,9.99
2023-04-17T08:06:39.193Z,10.02
2023-04-17T08:09:07.110Z,9.99
2023-04-17T08:11:42.719Z,10.09
2023-04-17T08:14:17.430Z,10.16
2023-04-17T08:16:43.943Z,10.23
2023-04-17T08:19:10.719Z,10.32
2023-04-17T08:21:37.675Z,10.42
2023-04-17T08:24:04.472Z,10.54
2023-04-17T08:26:31.503Z,10.68
2023-04-17T08:29:01.550Z,10.76
2023-04-17T08:31:28.938Z,10.91
2023-04-17T08:34:06.202Z,11.00
2023-04-17T08:36:40.264Z,11.11
2023-04-17T08:39:07.096Z,11.10
2023-04-17T08:41:43.504Z,11.24
2023-04-17T08:44:10.787Z,11.28
2023-04-17T08:46:38.842Z,11.27
2023-04-17T08:49:05.475Z,11.29
2023-04-17T08:51:32.693Z,11.32
2023-04-17T08:53:59.202Z,11.35
2023-04-17T08:56:26.344Z,11.43
2023-04-17T08:58:52.972Z,11.44
2023-04-17T09:01:20.743Z,11.46
2023-04-17T09:03:49.191Z,11.60
2023-04-17T09:06:16.186Z,11.74
2023-04-17T09:08:56.558Z,11.85
2023-04-17T09:11:23.126Z,11.91
2023-04-17T09:13:49.639Z,11.98
2023-04-17T09:16:16.294Z,12.04
2023-04-17T09:18:43.459Z,12.22
2023-04-17T09:21:10.463Z,12.30
2023-04-17T09:23:58.861Z,12.36
2023-04-17T09:26:27.461Z,12.46
2023-04-17T09:29:12.132Z,12.57
2023-04-17T09:31:41.396Z,12.69
2023-04-17T09:34:11.818Z,12.63
2023-04-17T09:36:41.561Z,12.67
2023-04-17T09:39:20.762Z,12.85
2023-04-17T09:41:47.647Z,12.89
2023-04-17T09:44:26.966Z,12.95
2023-04-17T09:46:54.486Z,13.10
2023-04-17T09:49:42.636Z,13.22
2023-04-17T09:52:09.227Z,13.29
2023-04-17T09:54:39.099Z,13.47
2023-04-17T09:57:10.307Z,13.46
2023-04-17T09:59:45.604Z,13.50
2023-04-17T10:02:16.452Z,13.49
2023-04-17T10:04:45.202Z,13.59
2023-04-17T10:07:16.595Z,13.55
2023-04-17T10:09:45.717Z,13.47
2023-04-17T10:12:15.379Z,13.48
2023-04-17T10:14:46.969Z,13.64
2023-04-17T10:17:34.299Z,13.80
2023-04-17T10:20:20.024Z,13.99
2023-04-17T10:22:56.997Z,14.21
2023-04-17T10:25:24.443Z,14.26
2023-04-17T10:27:54.372Z,14.42
2023-04-17T10:30:26.262Z,14.46
2023-04-17T10:33:20.494Z,14.66
2023-04-17T10:35:47.231Z,14.99
2023-04-17T10:38:13.795Z,15.30
2023-04-17T10:40:43.880Z,15.43
2023-04-17T10:43:11.176Z,15.55
2023-04-17T10:45:56.847Z,15.46
2023-04-17T10:48:41.679Z,15.31
2023-04-17T10:51:23.219Z,15.15
2023-04-17T10:54:03.711Z,15.01
2023-04-17T10:56:40.045Z,14.76
2023-04-17T10:59:08.768Z,14.66
2023-04-17T11:01:48.598Z,14.85
2023-04-17T11:04:28.174Z,14.91
2023-04-17T11:06:55.785Z,15.10
2023-04-17T11:09:24.344Z,15.20
2023-04-17T11:11:51.177Z,15.44
2023-04-17T11:14:19.739Z,15.50
2023-04-17T11:16:47.999Z,15.51
2023-04-17T11:19:23.211Z,15.56
2023-04-17T11:21:50.358Z,15.65
2023-04-17T11:24:27.431Z,15.83
2023-04-17T11:26:56.491Z,15.97
2023-04-17T11:29:24.270Z,16.23
2023-04-17T11:31:54.634Z,16.30
2023-04-17T11:34:21.929Z,16.36
2023-04-17T11:36:52.456Z,16.42
2023-04-17T11:39:20.116Z,16.56
2023-04-17T11:41:46.829Z,16.75
2023-04-17T11:44:14.390Z,16.77
2023-04-17T11:46:41.246Z,16.85
2023-04-17T11:49:08.373Z,16.71
2023-04-17T11:51:35.032Z,16.62
2023-04-17T11:54:01.534Z,16.67
2023-04-17T11:56:31.078Z,16.79
2023-04-17T11:58:59.108Z,16.99
2023-04-17T12:01:26.829Z,17.02
2023-04-17T12:03:54.881Z,17.38
2023-04-17T12:06:22.081Z,17.59
2023-04-17T12:08:51.136Z,17.76
2023-04-17T12:11:26.101Z,17.81
2023-04-17T12:13:53.454Z,17.76
2023-04-17T12:16:20.266Z,18.04
2023-04-17T12:18:46.844Z,18.21
2023-04-17T12:21:14.083Z,18.65
2023-04-17T12:23:41.416Z,19.04
2023-04-17T12:26:08.818Z,19.68
2023-04-17T12:28:36.295Z,19.90
2023-04-17T12:31:04.510Z,19.80
2023-04-17T12:33:32.075Z,19.75
2023-04-17T12:36:00.333Z,19.85
2023-04-17T12:38:26.922Z,19.72
2023-04-17T12:40:53.471Z,20.25
2023-04-17T12:43:19.937Z,20.90
2023-04-17T12:45:46.673Z,20.84
2023-04-17T12:48:14.529Z,21.03
2023-04-17T12:50:44.710Z,21.49
2023-04-17T12:53:13.276Z,21.94
2023-04-17T12:55:41.630Z,22.29
2023-04-17T12:58:11.045Z,21.91
2023-04-17T13:00:39.152Z,22.05
2023-04-17T13:03:06.081Z,22.57
2023-04-17T13:05:32.719Z,22.57
2023-04-17T13:07:59.385Z,22.89
2023-04-17T13:10:26.105Z,22.86
2023-04-17T13:12:52.815Z,22.17
2023-04-17T13:15:19.455Z,21.52
2023-04-17T13:17:46.535Z,20.94
2023-04-17T13:20:13.240Z,20.66
2023-04-17T13:22:39.861Z,20.84
2023-04-17T13:25:07.045Z,20.91
2023-04-17T13:27:33.538Z,20.92
2023-04-17T13:29:59.998Z,20.53
2023-04-17T13:32:26.506Z,20.24
2023-04-17T13:34:53.074Z,20.28
2023-04-17T13:37:20.562Z,20.14
2023-04-17T13:39:47.062Z,20.01
2023-04-17T13:42:15.982Z,20.13
2023-04-17T13:44:42.540Z,20.27
2023-04-17T13:47:09.122Z,20.64
2023-04-17T13:49:35.794Z,20.70
2023-04-17T13:52:03.344Z,20.51
2023-04-17T13:54:29.904Z,20.61
2023-04-17T13:56:57.400Z,20.54
2023-04-17T13:59:24.183Z,20.24
2023-04-17T14:01:50.900Z,20.61
2023-04-17T14:04:17.688Z,20.70
2023-04-17T14:06:46.915Z,21.06
2023-04-17T14:09:13.663Z,21.42
2023-04-17T14:11:41.026Z,21.44
2023-04-17T14:14:07.483Z,21.29
2023-04-17T14:16:34.112Z,21.05
2023-04-17T14:19:13.405Z,20.75
2023-04-17T14:21:41.125Z,20.44
2023-04-17T14:24:07.675Z,20.51
2023-04-17T14:26:34.161Z,20.63
2023-04-17T14:29:00.930Z,20.18
2023-04-17T14:31:27.498Z,19.89
2023-04-17T14:33:54.488Z,19.47
2023-04-17T14:36:20.981Z,19.25
2023-04-17T14:38:51.012Z,19.05
2023-04-17T14:41:17.739Z,18.70
2023-04-17T14:43:44.827Z,18.59
2023-04-17T14:46:11.979Z,18.95
2023-04-17T14:48:54.047Z,19.33
2023-04-17T14:51:22.417Z,19.59
2023-04-17T14:53:48.904Z,19.59
2023-04-17T14:56:15.899Z,19.34
2023-04-17T14:58:43.196Z,18.91
2023-04-17T15:01:09.740Z,18.43
2023-04-17T15:03:36.337Z,18.07
2023-04-17T15:06:03.477Z,18.10
2023-04-17T15:08:31.231Z,18.40
2023-04-17T15:10:58.710Z,18.68
2023-04-17T15:13:25.352Z,18.88
2023-04-17T15:15:51.815Z,18.93
2023-04-17T15:18:18.295Z,18.98
2023-04-17T15:20:44.839Z,18.73
2023-04-17T15:23:11.346Z,18.40
2023-04-17T15:25:37.775Z,18.13
2023-04-17T15:28:04.421Z,17.66
2023-04-17T15:30:30.924Z,17.45
2023-04-17T15:32:57.402Z,17.29
2023-04-17T15:35:23.927Z,17.14
2023-04-17T15:37:50.427Z,17.21
2023-04-17T15:40:16.870Z,17.34
2023-04-17T15:42:43.669Z,17.35
2023-04-17T15:45:10.697Z,17.25
2023-04-17T15:47:37.230Z,16.96
2023-04-17T15:50:03.955Z,16.81
2023-04-17T15:52:30.421Z,16.75
2023-04-17T15:54:56.904Z,16.72
2023-04-17T15:57:23.488Z,16.63
2023-04-17T15:59:50.201Z,16.56
2023-04-17T16:02:16.783Z,16.61
2023-04-17T16:04:43.805Z,16.63
2023-04-17T16:07:11.946Z,16.57
2023-04-17T16:09:39.757Z,16.51
2023-04-17T16:12:10.289Z,16.52
2023-04-17T16:14:37.899Z,16.47
2023-04-17T16:17:04.649Z,16.34
2023-04-17T16:19:41.439Z,16.25
2023-04-17T16:22:07.856Z,16.23
2023-04-17T16:24:34.333Z,16.15
2023-04-17T16:27:01.145Z,16.18
2023-04-17T16:29:27.766Z,16.26
2023-04-17T16:31:55.053Z,16.16
2023-04-17T16:34:22.293Z,16.16
2023-04-17T16:36:49.571Z,16.16
2023-04-17T16:39:16.178Z,16.21
2023-04-17T16:41:43.265Z,16.14
2023-04-17T16:44:09.766Z,16.01
2023-04-17T16:46:52.094Z,15.93
2023-04-17T16:49:22.746Z,15.84
2023-04-17T16:51:51.486Z,15.71
2023-04-17T16:54:19.388Z,15.68
2023-04-17T16:56:51.050Z,15.62
2023-04-17T16:59:17.522Z,15.60
2023-04-17T17:01:46.970Z,15.57
2023-04-17T17:04:13.522Z,15.44
2023-04-17T17:06:39.980Z,15.42
2023-04-17T17:09:06.660Z,15.37
2023-04-17T17:11:33.284Z,15.27
2023-04-17T17:13:59.772Z,15.20
2023-04-17T17:16:26.327Z,15.13
2023-04-17T17:18:52.845Z,15.01
2023-04-17T17:21:19.339Z,14.93
2023-04-17T17:23:46.036Z,14.87
2023-04-17T17:26:12.559Z,14.79
2023-04-17T17:28:38.980Z,14.65
2023-04-17T17:31:10.044Z,14.63
2023-04-17T17:33:36.770Z,14.48
2023-04-17T17:36:03.752Z,14.48
2023-04-17T17:38:32.401Z,14.42
2023-04-17T17:40:59.161Z,14.38
2023-04-17T17:43:28.036Z,14.33
2023-04-17T17:45:54.507Z,14.28
2023-04-17T17:48:21.219Z,14.22
2023-04-17T17:50:48.004Z,14.17
2023-04-17T17:53:16.903Z,14.15
2023-04-17T17:55:50.588Z,14.06
2023-04-17T17:58:17.059Z,14.06
2023-04-17T18:00:43.889Z,13.98
2023-04-17T18:03:10.608Z,13.99
2023-04-17T18:05:37.196Z,13.95
2023-04-17T18:08:03.670Z,13.91
2023-04-17T18:10:30.171Z,13.85
2023-04-17T18:12:56.610Z,13.73
2023-04-17T18:15:23.034Z,13.62
2023-04-17T18:17:49.817Z,13.62
2023-04-17T18:20:16.377Z,13.53
2023-04-17T18:22:43.032Z,13.48
2023-04-17T18:25:10.127Z,13.42
2023-04-17T18:27:36.652Z,13.36
2023-04-17T18:30:05.367Z,13.34
2023-04-17T18:32:32.262Z,13.26
2023-04-17T18:34:59.336Z,13.22
2023-04-17T18:37:25.866Z,13.18
2023-04-17T18:39:52.851Z,13.12
2023-04-17T18:42:20.027Z,13.02
2023-04-17T18:44:46.557Z,13.00
2023-04-17T18:47:13.050Z,12.98
2023-04-17T18:49:39.490Z,12.95
2023-04-17T18:52:05.927Z,12.91
2023-04-17T18:54:32.531Z,12.87
2023-04-17T18:56:58.942Z,12.83
2023-04-17T18:59:27.983Z,12.78
2023-04-17T19:01:54.474Z,12.74
2023-04-17T19:04:21.740Z,12.73
2023-04-17T19:06:48.218Z,12.59
2023-04-17T19:09:14.703Z,12.61
2023-04-17T19:11:41.190Z,12.59
2023-04-17T19:14:07.662Z,12.55
2023-04-17T19:16:34.364Z,12.52
2023-04-17T19:19:01.084Z,12.42
2023-04-17T19:21:28.481Z,12.35
2023-04-17T19:23:55.108Z,12.26
2023-04-17T19:26:21.945Z,12.18
2023-04-17T19:28:48.827Z,12.10
2023-04-17T19:31:15.819Z,12.07
2023-04-17T19:33:42.909Z,12.05
2023-04-17T19:36:09.347Z,12.04
2023-04-17T19:38:35.895Z,11.98
2023-04-17T19:41:14.721Z,11.97
2023-04-17T19:43:42.512Z,11.91
2023-04-17T19:46:09.580Z,11.88
2023-04-17T19:48:36.953Z,11.87
2023-04-17T19:51:08.168Z,11.81
2023-04-17T19:53:36.025Z,11.79
2023-04-17T19:56:04.831Z,11.76
2023-04-17T19:58:33.305Z,11.77
2023-04-17T20:01:00.749Z,11.73
2023-04-17T20:03:28.542Z,11.74
2023-04-17T20:05:57.932Z,11.73
2023-04-17T20:08:25.564Z,11.65
2023-04-17T20:10:52.221Z,11.61
2023-04-17T20:13:18.829Z,11.54
2023-04-17T20:15:45.405Z,11.51
2023-04-17T20:18:12.381Z,11.48
2023-04-17T20:20:39.183Z,11.41
2023-04-17T20:23:06.092Z,11.31
2023-04-17T20:25:32.643Z,11.28
2023-04-17T20:27:59.114Z,11.27
2023-04-17T20:30:25.690Z,11.17
2023-04-17T20:32:52.384Z,11.19
2023-04-17T20:35:20.868Z,11.19
2023-04-17T20:37:47.554Z,11.14
2023-04-17T20:40:14.348Z,11.08
2023-04-17T20:42:42.125Z,11.04
2023-04-17T20:45:09.526Z,11.07
2023-04-17T20:47:37.500Z,11.08
2023-04-17T20:50:05.611Z,11.07
2023-04-17T20:52:32.752Z,11.04
2023-04-17T20:55:00.903Z,10.99
2023-04-17T20:57:28.816Z,10.93
2023-04-17T20:59:55.749Z,10.94
2023-04-17T21:02:22.479Z,10.82
2023-04-17T21:04:49.495Z,10.85
2023-04-17T21:07:16.468Z,10.75
2023-04-17T21:09:43.025Z,10.69
2023-04-17T21:12:09.607Z,10.74
2023-04-17T21:14:39.259Z,10.67
2023-04-17T21:17:06.528Z,10.62
2023-04-17T21:19:35.918Z,10.60
2023-04-17T21:22:02.473Z,10.57
2023-04-17T21:24:29.098Z,10.53
2023-04-17T21:26:58.567Z,10.47
2023-04-17T21:29:28.743Z,10.44
2023-04-17T21:31:56.336Z,10.44
2023-04-17T21:34:24.052Z,10.34
2023-04-17T21:36:52.835Z,10.30
2023-04-17T21:39:19.286Z,10.26
2023-04-17T21:41:45.694Z,10.22
2023-04-17T21:44:12.364Z,10.22
2023-04-17T21:46:39.086Z,10.11
2023-04-17T21:49:05.624Z,10.18
2023-04-17T21:51:32.048Z,10.14
2023-04-17T21:53:58.624Z,10.12
2023-04-17T21:56:25.194Z,10.08
2023-04-17T21:58:51.713Z,10.11
2023-04-17T22:01:18.212Z,10.07
2023-04-17T22:03:44.730Z,10.07
2023-04-17T22:06:11.439Z,10.06
2023-04-17T22:08:37.912Z,10.03
2023-04-17T22:11:05.468Z,9.95
2023-04-17T22:13:32.051Z,9.95
2023-04-17T22:15:58.694Z,9.94
2023-04-17T22:18:27.373Z,9.79
2023-04-17T22:20:53.843Z,9.80
2023-04-17T22:23:20.468Z,9.73
2023-04-17T22:25:47.133Z,9.70
2023-04-17T22:28:13.641Z,9.65
2023-04-17T22:30:40.116Z,9.59
2023-04-17T22:33:06.639Z,9.53
2023-04-17T22:35:33.107Z,9.52
2023-04-17T22:37:59.591Z,9.47
2023-04-17T22:40:26.029Z,9.40
2023-04-17T22:42:52.564Z,9.30
2023-04-17T22:45:19.028Z,9.27
2023-04-17T22:47:45.570Z,9.21
2023-04-17T22:50:14.192Z,9.13
2023-04-17T22:52:40.844Z,9.07
2023-04-17T22:55:07.689Z,8.98
2023-04-17T22:57:34.171Z,8.96
2023-04-17T23:00:00.624Z,8.94
2023-04-17T23:02:27.193Z,8.89
2023-04-17T23:04:53.725Z,8.83
2023-04-17T23:07:20.277Z,8.73
2023-04-17T23:09:46.736Z,8.67
2023-04-17T23:12:13.213Z,8.70
2023-04-17T23:14:39.669Z,8.64
2023-04-17T23:17:06.528Z,8.58
2023-04-17T23:19:33.052Z,8.53
2023-04-17T23:22:01.093Z,8.46
2023-04-17T23:24:28.003Z,8.47
2023-04-17T23:26:55.190Z,8.42
2023-04-17T23:29:21.658Z,8.39
2023-04-17T23:31:48.724Z,8.25
2023-04-17T23:34:15.562Z,8.25
2023-04-17T23:36:42.319Z,8.26
2023-04-17T23:39:09.223Z,8.15
2023-04-17T23:41:35.683Z,8.09
2023-04-17T23:44:03.891Z,8.08
2023-04-17T23:46:30.875Z,8.06
2023-04-17T23:48:57.381Z,7.97
2023-04-17T23:51:23.896Z,7.96
2023-04-17T23:53:50.663Z,7.91
2023-04-17T23:56:18.040Z,7.89
2023-04-17T23:58:44.473Z,7.80
